Aviation Digital Data Service (ADDS)

Output produced by TAFs form (1007 UTC 04 July 2015)
found at http://www.aviationweather.gov/adds/tafs/
 
KGFL 040521Z 0406/0506 00000KT P6SM BKN250 
     FM041100 00000KT P6SM VCSH SCT045 OVC150 
     FM041400 17004KT P6SM -SHRA BKN045 OVC090 
     FM041900 19006KT P6SM VCSH BKN090 OVC120 
     FM050200 19003KT P6SM VCSH BKN070 OVC090